Time;durP1;ratioP1;P1;durP2;ratioP2;P2;SDS_P1;SDS_P2;PMS_P1;PMS_P2;Temp;Humidity;BMP_temperature;BMP_pressure;BME280_temperature;BME280_humidity;BME280_pressure;Samples;Min_cycle;Max_cycle;Signal;HPM_P1;HPM_P2
2023/04/16 00:00:58;;;;;;;9.98;4.85;;;;;;;;;;5074446;28;20095;-65
2023/04/16 00:03:23;;;;;;;9.35;5.13;;;;;;;;;;5062202;28;20828;-64
2023/04/16 00:05:49;;;;;;;12.63;5.75;;;;;;;;;;5040550;28;20047;-63
2023/04/16 00:08:14;;;;;;;8.35;5.07;;;;;;;;;;5038038;28;20017;-64
2023/04/16 00:10:40;;;;;;;19.08;5.35;;;;;;;;;;5072255;28;20024;-64
2023/04/16 00:13:05;;;;;;;13.02;5.72;;;;;;;;;;5073251;28;20558;-64
2023/04/16 00:15:30;;;;;;;7.70;4.95;;;;;;;;;;5072158;28;20028;-63
2023/04/16 00:17:55;;;;;;;8.48;5.60;;;;;;;;;;5072831;28;20020;-64
2023/04/16 00:20:21;;;;;;;6.55;4.97;;;;;;;;;;5072670;28;20481;-63
2023/04/16 00:22:46;;;;;;;13.05;5.25;;;;;;;;;;5072117;28;20029;-63
2023/04/16 00:25:12;;;;;;;10.23;5.03;;;;;;;;;;5072452;28;20118;-63
2023/04/16 00:27:37;;;;;;;9.52;4.72;;;;;;;;;;5072442;28;20493;-64
2023/04/16 00:30:02;;;;;;;18.70;5.20;;;;;;;;;;5082093;28;20016;-64
2023/04/16 00:32:29;;;;;;;9.32;5.63;;;;;;;;;;5079281;28;20025;-64
2023/04/16 00:34:54;;;;;;;8.85;5.57;;;;;;;;;;5084824;28;20382;-64
2023/04/16 00:37:19;;;;;;;11.05;5.25;;;;;;;;;;5085284;28;20024;-64
2023/04/16 00:39:44;;;;;;;8.75;5.13;;;;;;;;;;5086430;28;20074;-64
2023/04/16 00:42:10;;;;;;;9.63;5.78;;;;;;;;;;5085076;28;20036;-64
2023/04/16 00:44:35;;;;;;;9.02;5.78;;;;;;;;;;5073234;28;20066;-64
2023/04/16 00:47:01;;;;;;;9.55;5.53;;;;;;;;;;5065923;28;20034;-64
2023/04/16 00:49:27;;;;;;;9.27;5.25;;;;;;;;;;5035712;28;20036;-64
2023/04/16 00:51:52;;;;;;;15.02;6.25;;;;;;;;;;5036581;28;20021;-65
2023/04/16 00:54:18;;;;;;;9.85;5.32;;;;;;;;;;5069566;28;20032;-64
2023/04/16 00:56:43;;;;;;;11.80;6.68;;;;;;;;;;5079469;28;20052;-64
2023/04/16 00:59:09;;;;;;;13.38;6.78;;;;;;;;;;5072158;28;20031;-65
2023/04/16 01:01:34;;;;;;;13.82;6.50;;;;;;;;;;5071818;28;20017;-65
2023/04/16 01:03:59;;;;;;;7.25;5.47;;;;;;;;;;5071488;28;20039;-66
2023/04/16 01:06:25;;;;;;;13.48;5.82;;;;;;;;;;5079707;28;20103;-64
2023/04/16 01:08:51;;;;;;;18.52;6.20;;;;;;;;;;5071153;28;20029;-65
2023/04/16 01:11:16;;;;;;;14.95;6.85;;;;;;;;;;5071618;28;20091;-65
2023/04/16 01:13:41;;;;;;;16.73;6.47;;;;;;;;;;5071690;28;20269;-65
2023/04/16 01:16:08;;;;;;;12.65;6.07;;;;;;;;;;5072330;28;20525;-65
2023/04/16 01:18:33;;;;;;;9.75;6.60;;;;;;;;;;5067350;28;20481;-65
2023/04/16 01:20:58;;;;;;;10.02;6.13;;;;;;;;;;5072375;28;20028;-65
2023/04/16 01:23:24;;;;;;;11.98;6.72;;;;;;;;;;5085116;28;20087;-65
2023/04/16 01:25:49;;;;;;;11.63;5.68;;;;;;;;;;5081998;28;20501;-65
2023/04/16 01:28:15;;;;;;;12.75;6.05;;;;;;;;;;5073811;28;20028;-65
2023/04/16 01:30:40;;;;;;;9.23;6.05;;;;;;;;;;5084495;28;20051;-65
2023/04/16 01:33:06;;;;;;;10.90;6.35;;;;;;;;;;5071456;28;20016;-65
2023/04/16 01:35:32;;;;;;;12.40;7.25;;;;;;;;;;5071066;28;20367;-65
2023/04/16 01:37:57;;;;;;;16.60;6.40;;;;;;;;;;5074720;28;20158;-65
2023/04/16 01:40:22;;;;;;;13.32;7.63;;;;;;;;;;5077269;28;20383;-65
2023/04/16 01:42:48;;;;;;;12.43;7.65;;;;;;;;;;5071840;28;20103;-65
2023/04/16 01:45:13;;;;;;;16.20;6.85;;;;;;;;;;5071629;28;20051;-66
2023/04/16 01:47:39;;;;;;;13.73;7.53;;;;;;;;;;5055375;28;20453;-65
2023/04/16 01:50:04;;;;;;;11.48;6.57;;;;;;;;;;5056042;28;20020;-65
2023/04/16 01:52:30;;;;;;;23.17;7.43;;;;;;;;;;5054167;28;20792;-65
2023/04/16 01:54:55;;;;;;;10.52;7.15;;;;;;;;;;5034627;28;20028;-65
2023/04/16 01:57:20;;;;;;;17.85;7.85;;;;;;;;;;5035044;28;20921;-65
2023/04/16 01:59:46;;;;;;;14.18;7.25;;;;;;;;;;5017948;28;20110;-65
2023/04/16 02:02:12;;;;;;;8.75;7.28;;;;;;;;;;5037382;28;20028;-65
2023/04/16 02:04:38;;;;;;;15.00;7.60;;;;;;;;;;5046815;28;20085;-65
2023/04/16 02:07:04;;;;;;;17.42;8.35;;;;;;;;;;5046226;28;20020;-65
2023/04/16 02:09:29;;;;;;;17.50;8.52;;;;;;;;;;5040056;28;20183;-64
2023/04/16 02:11:54;;;;;;;16.25;8.38;;;;;;;;;;5035694;28;20128;-65
2023/04/16 02:14:21;;;;;;;17.10;8.68;;;;;;;;;;5040376;28;20847;-67
2023/04/16 02:16:46;;;;;;;16.95;8.68;;;;;;;;;;5063978;28;20418;-65
2023/04/16 02:19:12;;;;;;;15.75;9.93;;;;;;;;;;5077677;28;20020;-65
2023/04/16 02:21:37;;;;;;;15.90;8.40;;;;;;;;;;5070930;28;20021;-65
2023/04/16 02:24:02;;;;;;;12.77;8.68;;;;;;;;;;5070899;28;20016;-65
2023/04/16 02:26:28;;;;;;;16.95;8.43;;;;;;;;;;5076490;28;20024;-65
2023/04/16 02:28:53;;;;;;;17.02;9.13;;;;;;;;;;5077885;28;20470;-64
2023/04/16 02:31:20;;;;;;;17.48;9.88;;;;;;;;;;5085240;28;20502;-65
2023/04/16 02:33:45;;;;;;;14.48;10.35;;;;;;;;;;5060980;28;20078;-64
2023/04/16 02:36:11;;;;;;;17.30;10.52;;;;;;;;;;5034767;28;20902;-65
2023/04/16 02:38:36;;;;;;;17.98;9.43;;;;;;;;;;5045079;28;20024;-65
2023/04/16 02:41:02;;;;;;;18.92;10.43;;;;;;;;;;5040791;28;20119;-65
2023/04/16 02:43:27;;;;;;;16.70;10.15;;;;;;;;;;5080344;28;20467;-65
2023/04/16 02:45:52;;;;;;;21.35;10.45;;;;;;;;;;5076401;28;20078;-65
2023/04/16 02:48:17;;;;;;;20.38;10.40;;;;;;;;;;5074299;28;20024;-65
2023/04/16 02:50:43;;;;;;;22.58;10.90;;;;;;;;;;5074310;28;20502;-65
2023/04/16 02:53:09;;;;;;;12.00;9.20;;;;;;;;;;5079498;28;20024;-65
2023/04/16 02:55:34;;;;;;;14.98;10.70;;;;;;;;;;5061112;28;20035;-65
2023/04/16 02:58:00;;;;;;;18.70;10.43;;;;;;;;;;5085186;28;20025;-65
2023/04/16 03:00:25;;;;;;;21.08;11.05;;;;;;;;;;5074579;28;20070;-65
2023/04/16 03:02:51;;;;;;;21.40;11.43;;;;;;;;;;5074858;28;20036;-65
2023/04/16 03:05:16;;;;;;;24.13;11.13;;;;;;;;;;5079699;28;20028;-65
2023/04/16 03:07:42;;;;;;;17.48;10.88;;;;;;;;;;5074450;28;20082;-65
2023/04/16 03:10:07;;;;;;;17.95;10.68;;;;;;;;;;5074947;28;20024;-65
2023/04/16 03:12:33;;;;;;;19.20;11.13;;;;;;;;;;5075090;28;20074;-64
2023/04/16 03:14:58;;;;;;;15.07;11.00;;;;;;;;;;5077255;28;20479;-66
2023/04/16 03:17:23;;;;;;;16.45;10.30;;;;;;;;;;5074536;28;20028;-65
2023/04/16 03:19:49;;;;;;;17.20;10.32;;;;;;;;;;5082842;28;20476;-65
2023/04/16 03:22:15;;;;;;;20.70;12.73;;;;;;;;;;5080810;28;20039;-65
2023/04/16 03:24:40;;;;;;;18.80;11.20;;;;;;;;;;5073214;28;20394;-65
2023/04/16 03:27:05;;;;;;;20.73;11.68;;;;;;;;;;5075437;28;20027;-65
2023/04/16 03:29:31;;;;;;;18.25;12.20;;;;;;;;;;5073602;28;20028;-65
2023/04/16 03:31:56;;;;;;;18.58;11.55;;;;;;;;;;5073876;28;20025;-65
2023/04/16 03:34:21;;;;;;;19.35;12.40;;;;;;;;;;5073733;28;20115;-65
2023/04/16 03:36:47;;;;;;;18.70;11.55;;;;;;;;;;5073350;28;20024;-65
2023/04/16 03:39:12;;;;;;;18.55;12.43;;;;;;;;;;5056090;28;20431;-65
2023/04/16 03:41:37;;;;;;;17.08;11.35;;;;;;;;;;5084596;28;20112;-65
2023/04/16 03:44:02;;;;;;;26.10;11.98;;;;;;;;;;5074739;28;20086;-64
2023/04/16 03:46:28;;;;;;;18.75;11.23;;;;;;;;;;5074019;28;20029;-65
2023/04/16 03:48:53;;;;;;;16.27;11.50;;;;;;;;;;5073159;28;20482;-65
2023/04/16 03:51:18;;;;;;;24.85;12.63;;;;;;;;;;5073009;28;20063;-65
2023/04/16 03:53:44;;;;;;;20.20;13.18;;;;;;;;;;5073964;28;20058;-65
2023/04/16 03:56:09;;;;;;;18.60;13.15;;;;;;;;;;5073622;28;20044;-65
2023/04/16 03:58:34;;;;;;;19.52;13.25;;;;;;;;;;5072200;28;20074;-65
2023/04/16 04:01:00;;;;;;;16.15;11.80;;;;;;;;;;5062028;28;20092;-65
2023/04/16 04:03:25;;;;;;;19.52;12.52;;;;;;;;;;5046295;28;20143;-65
2023/04/16 04:05:50;;;;;;;21.50;13.75;;;;;;;;;;5056834;28;20020;-65
2023/04/16 04:08:16;;;;;;;17.08;12.80;;;;;;;;;;5052868;28;20030;-65
2023/04/16 04:10:41;;;;;;;20.17;13.05;;;;;;;;;;5043584;28;20032;-65
2023/04/16 04:13:06;;;;;;;17.25;12.10;;;;;;;;;;5037771;28;20028;-65
2023/04/16 04:15:32;;;;;;;18.25;12.60;;;;;;;;;;5038736;28;20905;-65
2023/04/16 04:17:57;;;;;;;19.42;12.88;;;;;;;;;;5036717;28;20055;-64
2023/04/16 04:20:23;;;;;;;21.27;13.15;;;;;;;;;;5037120;28;20029;-65
2023/04/16 04:22:48;;;;;;;18.52;13.35;;;;;;;;;;5075417;28;20048;-65
2023/04/16 04:25:14;;;;;;;22.58;14.35;;;;;;;;;;5073248;28;20031;-65
2023/04/16 04:27:39;;;;;;;23.80;13.02;;;;;;;;;;5072504;28;20086;-65
2023/04/16 04:30:06;;;;;;;19.48;14.20;;;;;;;;;;5080953;28;20024;-65
2023/04/16 04:32:31;;;;;;;18.00;13.00;;;;;;;;;;5076992;28;20146;-65
2023/04/16 04:34:58;;;;;;;22.35;13.38;;;;;;;;;;5077901;28;20095;-65
2023/04/16 04:37:24;;;;;;;16.23;13.05;;;;;;;;;;5090697;28;20078;-64
2023/04/16 04:39:49;;;;;;;23.20;14.82;;;;;;;;;;5073409;28;20486;-65
2023/04/16 04:42:18;;;;;;;20.15;14.18;;;;;;;;;;5072812;28;20052;-65
2023/04/16 04:44:43;;;;;;;30.40;14.07;;;;;;;;;;5072830;28;20017;-64
2023/04/16 04:47:09;;;;;;;21.38;14.05;;;;;;;;;;5072475;28;20055;-64
2023/04/16 04:49:34;;;;;;;17.58;14.35;;;;;;;;;;5072422;28;20021;-65
2023/04/16 04:52:00;;;;;;;25.52;15.15;;;;;;;;;;5072101;28;20366;-65
2023/04/16 04:54:25;;;;;;;21.60;15.10;;;;;;;;;;5068726;28;20085;-65
2023/04/16 04:56:51;;;;;;;24.73;14.85;;;;;;;;;;5072408;28;20024;-65
2023/04/16 04:59:16;;;;;;;25.88;16.20;;;;;;;;;;5075883;28;20099;-65
2023/04/16 05:01:42;;;;;;;18.85;15.25;;;;;;;;;;5080597;28;20439;-65
2023/04/16 05:04:07;;;;;;;21.50;15.73;;;;;;;;;;5077815;28;20082;-65
2023/04/16 05:06:32;;;;;;;24.60;16.17;;;;;;;;;;5072390;28;20036;-66
2023/04/16 05:08:57;;;;;;;26.52;16.75;;;;;;;;;;5065318;28;20869;-65
2023/04/16 05:11:23;;;;;;;26.17;17.05;;;;;;;;;;5058373;28;20120;-64
2023/04/16 05:13:48;;;;;;;28.42;16.35;;;;;;;;;;5050847;28;20048;-64
2023/04/16 05:16:13;;;;;;;24.55;17.80;;;;;;;;;;5044891;28;20035;-65
2023/04/16 05:18:39;;;;;;;21.55;16.63;;;;;;;;;;5046139;28;20115;-64
2023/04/16 05:21:04;;;;;;;25.17;19.05;;;;;;;;;;5053607;28;20738;-64
2023/04/16 05:23:29;;;;;;;28.55;18.17;;;;;;;;;;5051555;28;20055;-64
2023/04/16 05:25:55;;;;;;;25.73;18.50;;;;;;;;;;5045841;28;20060;-65
2023/04/16 05:28:20;;;;;;;24.90;19.13;;;;;;;;;;5046139;28;20024;-64
2023/04/16 05:30:45;;;;;;;33.70;19.60;;;;;;;;;;5032009;28;20020;-64
2023/04/16 05:33:11;;;;;;;28.02;18.65;;;;;;;;;;5033064;28;20880;-65
2023/04/16 05:35:36;;;;;;;32.47;20.13;;;;;;;;;;5037723;28;20853;-65
2023/04/16 05:38:03;;;;;;;26.95;20.35;;;;;;;;;;5042359;28;20042;-64
2023/04/16 05:40:28;;;;;;;31.25;21.70;;;;;;;;;;5050292;28;20021;-65
2023/04/16 05:42:53;;;;;;;25.05;20.23;;;;;;;;;;5043462;28;20055;-65
2023/04/16 05:45:19;;;;;;;36.65;21.70;;;;;;;;;;5034598;28;20028;-64
2023/04/16 05:47:44;;;;;;;36.05;20.48;;;;;;;;;;5032700;28;20787;-64
2023/04/16 05:50:10;;;;;;;30.60;20.92;;;;;;;;;;5036380;28;20834;-66
2023/04/16 05:52:35;;;;;;;31.58;21.27;;;;;;;;;;5044277;28;20032;-64
2023/04/16 05:55:00;;;;;;;27.40;21.50;;;;;;;;;;5036880;28;20139;-65
2023/04/16 05:57:26;;;;;;;26.45;21.60;;;;;;;;;;5046494;28;20051;-64
2023/04/16 05:59:52;;;;;;;27.05;20.95;;;;;;;;;;5047022;28;20028;-65
2023/04/16 06:02:17;;;;;;;30.80;21.92;;;;;;;;;;5037658;28;20113;-64
2023/04/16 06:04:42;;;;;;;35.85;21.30;;;;;;;;;;5045590;28;20102;-64
2023/04/16 06:07:08;;;;;;;33.92;21.58;;;;;;;;;;5037855;28;20081;-64
2023/04/16 06:09:33;;;;;;;31.52;21.40;;;;;;;;;;5044902;28;20025;-64
2023/04/16 06:11:58;;;;;;;36.80;21.73;;;;;;;;;;5033941;28;20024;-65
2023/04/16 06:14:23;;;;;;;33.55;23.67;;;;;;;;;;5038962;28;20127;-64
2023/04/16 06:16:49;;;;;;;37.17;21.45;;;;;;;;;;5039361;28;20618;-64
2023/04/16 06:19:15;;;;;;;40.20;23.88;;;;;;;;;;5036590;28;20089;-64
2023/04/16 06:21:40;;;;;;;34.53;21.98;;;;;;;;;;5048005;28;20926;-64
2023/04/16 06:24:05;;;;;;;30.45;22.65;;;;;;;;;;5052123;28;20232;-64
2023/04/16 06:26:30;;;;;;;31.85;21.10;;;;;;;;;;5048600;28;20851;-63
2023/04/16 06:28:56;;;;;;;35.20;21.95;;;;;;;;;;5049618;28;20851;-63
2023/04/16 06:31:21;;;;;;;26.30;20.23;;;;;;;;;;5051997;28;20020;-66
2023/04/16 06:33:46;;;;;;;30.25;20.23;;;;;;;;;;5049316;28;20039;-64
2023/04/16 06:36:11;;;;;;;33.15;21.85;;;;;;;;;;5045189;28;20019;-64
2023/04/16 06:38:37;;;;;;;32.38;21.45;;;;;;;;;;5050280;28;20028;-66
2023/04/16 06:41:02;;;;;;;30.05;21.65;;;;;;;;;;5049539;28;20020;-64
2023/04/16 06:43:28;;;;;;;27.83;19.88;;;;;;;;;;5047709;28;20029;-64
2023/04/16 06:45:54;;;;;;;31.73;21.65;;;;;;;;;;5042006;28;20131;-66
2023/04/16 06:48:19;;;;;;;32.45;21.63;;;;;;;;;;5040715;28;20024;-65
2023/04/16 06:50:44;;;;;;;34.75;21.00;;;;;;;;;;5041689;28;20079;-66
2023/04/16 06:53:10;;;;;;;32.53;20.05;;;;;;;;;;5046141;28;20867;-66
2023/04/16 06:55:35;;;;;;;27.80;19.55;;;;;;;;;;5042434;28;20020;-64
2023/04/16 06:58:00;;;;;;;31.13;20.63;;;;;;;;;;5048361;28;20052;-64
2023/04/16 07:00:25;;;;;;;26.25;19.40;;;;;;;;;;5049153;28;20871;-64
2023/04/16 07:02:51;;;;;;;31.10;20.17;;;;;;;;;;5047375;28;20038;-64
2023/04/16 07:05:16;;;;;;;31.15;19.75;;;;;;;;;;5041375;28;20089;-64
2023/04/16 07:07:41;;;;;;;30.95;19.88;;;;;;;;;;5044511;28;20730;-65
2023/04/16 07:10:07;;;;;;;34.45;20.58;;;;;;;;;;5041309;28;20032;-66
2023/04/16 07:12:32;;;;;;;29.67;20.05;;;;;;;;;;5042675;28;20048;-65
2023/04/16 07:14:57;;;;;;;31.92;20.05;;;;;;;;;;5044719;28;20040;-65
2023/04/16 07:17:23;;;;;;;41.88;20.80;;;;;;;;;;5045961;28;20028;-65
2023/04/16 07:19:48;;;;;;;30.35;20.95;;;;;;;;;;5046919;28;20802;-64
2023/04/16 07:22:13;;;;;;;33.53;21.35;;;;;;;;;;5063702;28;20450;-64
2023/04/16 07:24:39;;;;;;;33.00;20.50;;;;;;;;;;5055452;28;20020;-67
2023/04/16 07:27:04;;;;;;;21.20;17.80;;;;;;;;;;5052470;28;20047;-65
2023/04/16 07:29:30;;;;;;;25.17;19.70;;;;;;;;;;5060386;28;20024;-65
2023/04/16 07:31:56;;;;;;;27.23;19.60;;;;;;;;;;5049833;28;20027;-65
2023/04/16 07:34:21;;;;;;;25.60;19.70;;;;;;;;;;5037098;28;20631;-65
2023/04/16 07:36:46;;;;;;;27.13;20.40;;;;;;;;;;5053764;28;20471;-65
2023/04/16 07:39:12;;;;;;;32.97;19.15;;;;;;;;;;5045968;28;20032;-64
2023/04/16 07:41:38;;;;;;;26.27;18.75;;;;;;;;;;5036389;28;20054;-64
2023/04/16 07:44:04;;;;;;;29.05;18.33;;;;;;;;;;5043070;28;20194;-64
2023/04/16 07:46:29;;;;;;;26.15;18.25;;;;;;;;;;5044849;28;20032;-64
2023/04/16 07:48:54;;;;;;;37.08;18.65;;;;;;;;;;5040275;28;20024;-64
2023/04/16 07:51:20;;;;;;;27.60;19.00;;;;;;;;;;5039333;28;20900;-65
2023/04/16 07:53:45;;;;;;;29.80;18.98;;;;;;;;;;5043148;28;20034;-64
2023/04/16 07:56:10;;;;;;;42.28;19.83;;;;;;;;;;5041648;28;20043;-64
2023/04/16 07:58:35;;;;;;;29.35;19.17;;;;;;;;;;5051903;28;20029;-65
2023/04/16 08:01:01;;;;;;;28.92;18.55;;;;;;;;;;5049425;28;20778;-63
2023/04/16 08:03:27;;;;;;;24.45;19.42;;;;;;;;;;5042528;28;20063;-64
2023/04/16 08:05:52;;;;;;;28.85;19.33;;;;;;;;;;5043881;28;20043;-63
2023/04/16 08:08:17;;;;;;;28.90;18.75;;;;;;;;;;5037630;28;20036;-64
2023/04/16 08:10:42;;;;;;;24.63;17.90;;;;;;;;;;5035895;28;20090;-63
2023/04/16 08:13:08;;;;;;;27.48;19.73;;;;;;;;;;5038248;28;20024;-63
2023/04/16 08:15:33;;;;;;;33.28;18.75;;;;;;;;;;5053701;28;20119;-63
2023/04/16 08:17:58;;;;;;;26.50;17.88;;;;;;;;;;5045581;28;20021;-63
2023/04/16 08:20:24;;;;;;;27.30;19.10;;;;;;;;;;5058153;28;20035;-63
2023/04/16 08:22:49;;;;;;;28.50;18.38;;;;;;;;;;5049629;28;20040;-63
2023/04/16 08:25:14;;;;;;;26.75;18.63;;;;;;;;;;5061542;28;20031;-65
2023/04/16 08:27:39;;;;;;;29.70;17.33;;;;;;;;;;5049785;28;20027;-64
2023/04/16 08:30:05;;;;;;;28.45;18.38;;;;;;;;;;5061826;28;20125;-64
2023/04/16 08:32:30;;;;;;;24.48;17.80;;;;;;;;;;5056491;28;20566;-64
2023/04/16 08:34:56;;;;;;;31.45;18.00;;;;;;;;;;5056591;28;20031;-64
2023/04/16 08:37:21;;;;;;;25.52;17.52;;;;;;;;;;5050619;28;20091;-64
2023/04/16 08:39:46;;;;;;;22.95;16.67;;;;;;;;;;5054954;28;20086;-63
2023/04/16 08:42:15;;;;;;;23.80;18.80;;;;;;;;;;5058221;28;20903;-61
2023/04/16 08:44:44;;;;;;;25.75;18.95;;;;;;;;;;5062278;28;20021;-61
2023/04/16 08:47:11;;;;;;;23.85;17.92;;;;;;;;;;5056513;28;20028;-61
2023/04/16 08:49:42;;;;;;;23.73;17.92;;;;;;;;;;5057151;28;20021;-63
2023/04/16 08:52:08;;;;;;;26.23;18.25;;;;;;;;;;5068600;28;20035;-62
2023/04/16 08:54:38;;;;;;;25.58;19.30;;;;;;;;;;5064086;28;20016;-60
2023/04/16 08:57:05;;;;;;;26.50;18.25;;;;;;;;;;5072605;28;20020;-62
2023/04/16 08:59:30;;;;;;;31.88;19.17;;;;;;;;;;5071944;28;20023;-64
2023/04/16 09:01:56;;;;;;;27.90;18.48;;;;;;;;;;5081461;28;20032;-64
2023/04/16 09:04:25;;;;;;;24.83;17.80;;;;;;;;;;5073086;28;20036;-63
2023/04/16 09:06:51;;;;;;;23.52;18.75;;;;;;;;;;5073061;28;20056;-64
2023/04/16 09:09:17;;;;;;;23.90;17.40;;;;;;;;;;5074277;28;20070;-63
2023/04/16 09:11:43;;;;;;;28.63;18.70;;;;;;;;;;5072518;28;20025;-64
2023/04/16 09:14:10;;;;;;;27.17;17.13;;;;;;;;;;5076901;28;20032;-62
2023/04/16 09:16:35;;;;;;;22.92;17.75;;;;;;;;;;5082911;28;20035;-62
2023/04/16 09:19:00;;;;;;;25.35;18.00;;;;;;;;;;5072235;28;20052;-62
2023/04/16 09:21:26;;;;;;;26.75;16.65;;;;;;;;;;5083288;28;20386;-63
2023/04/16 09:23:52;;;;;;;26.60;17.40;;;;;;;;;;5072158;28;20029;-63
2023/04/16 09:26:17;;;;;;;22.55;17.15;;;;;;;;;;5081864;28;20024;-64
2023/04/16 09:28:47;;;;;;;27.67;17.85;;;;;;;;;;5078166;28;20020;-64
2023/04/16 09:31:16;;;;;;;27.52;18.15;;;;;;;;;;5088799;28;20119;-64
2023/04/16 09:33:42;;;;;;;24.38;17.65;;;;;;;;;;5080034;28;20079;-64
2023/04/16 09:36:07;;;;;;;24.83;17.08;;;;;;;;;;5086013;28;20468;-67
2023/04/16 09:38:49;;;;;;;29.52;15.85;;;;;;;;;;5078580;28;20059;-63
2023/04/16 09:41:15;;;;;;;20.42;16.17;;;;;;;;;;5073094;28;20087;-66
2023/04/16 09:43:40;;;;;;;28.95;16.67;;;;;;;;;;5071266;28;20016;-66
2023/04/16 09:46:10;;;;;;;34.88;16.65;;;;;;;;;;5071324;28;20471;-65
2023/04/16 09:48:35;;;;;;;25.90;17.90;;;;;;;;;;5071191;28;20364;-63
2023/04/16 09:51:00;;;;;;;21.55;16.98;;;;;;;;;;5074507;28;20101;-64
2023/04/16 09:53:27;;;;;;;24.10;17.00;;;;;;;;;;5071958;28;20024;-61
2023/04/16 09:55:56;;;;;;;21.08;16.15;;;;;;;;;;5071783;28;20028;-62
2023/04/16 09:58:23;;;;;;;24.65;16.45;;;;;;;;;;5081670;28;20036;-64
2023/04/16 10:00:48;;;;;;;19.67;15.43;;;;;;;;;;5072023;28;20044;-61
2023/04/16 10:03:13;;;;;;;23.35;16.30;;;;;;;;;;5070939;28;20059;-62
2023/04/16 10:05:40;;;;;;;23.70;15.05;;;;;;;;;;5075730;28;20390;-60
2023/04/16 10:08:13;;;;;;;22.35;14.82;;;;;;;;;;5072521;28;20794;-60
2023/04/16 10:10:39;;;;;;;22.07;15.93;;;;;;;;;;5075810;28;20021;-63
2023/04/16 10:13:04;;;;;;;24.15;15.88;;;;;;;;;;5075219;28;20058;-63
2023/04/16 10:15:30;;;;;;;23.88;15.60;;;;;;;;;;5071352;28;20394;-63
2023/04/16 10:17:56;;;;;;;23.45;16.33;;;;;;;;;;5079131;28;20410;-65
2023/04/16 10:20:22;;;;;;;23.42;16.15;;;;;;;;;;5071296;28;20033;-62
2023/04/16 10:22:48;;;;;;;24.23;15.00;;;;;;;;;;5077956;28;20398;-63
2023/04/16 10:25:13;;;;;;;22.95;15.57;;;;;;;;;;5083488;28;20044;-63
2023/04/16 10:27:39;;;;;;;25.42;16.83;;;;;;;;;;5075861;28;20036;-64
2023/04/16 10:30:06;;;;;;;21.83;15.25;;;;;;;;;;5079411;28;20081;-63
2023/04/16 10:32:31;;;;;;;29.52;16.42;;;;;;;;;;5084774;28;20032;-62
2023/04/16 10:34:57;;;;;;;19.27;14.68;;;;;;;;;;5080034;28;20043;-62
2023/04/16 10:37:30;;;;;;;20.17;14.98;;;;;;;;;;5075280;28;20028;-63
2023/04/16 10:39:55;;;;;;;21.98;16.20;;;;;;;;;;5070294;28;20029;-63
2023/04/16 10:42:20;;;;;;;23.83;15.13;;;;;;;;;;5071706;28;20048;-62
2023/04/16 10:44:46;;;;;;;22.92;14.18;;;;;;;;;;5071346;28;20082;-61
2023/04/16 10:47:12;;;;;;;21.08;14.98;;;;;;;;;;5077715;28;20387;-62
2023/04/16 10:49:37;;;;;;;24.13;15.40;;;;;;;;;;5070839;28;20142;-63
2023/04/16 10:52:08;;;;;;;22.48;15.25;;;;;;;;;;5070217;28;20107;-63
2023/04/16 10:54:34;;;;;;;21.88;13.93;;;;;;;;;;5069725;28;20036;-62
2023/04/16 10:57:02;;;;;;;25.83;14.55;;;;;;;;;;5071518;28;20460;-62
2023/04/16 10:59:32;;;;;;;29.40;16.70;;;;;;;;;;5072949;28;20040;-61
2023/04/16 11:01:58;;;;;;;20.52;15.23;;;;;;;;;;5079024;28;20066;-62
2023/04/16 11:04:23;;;;;;;25.63;16.67;;;;;;;;;;5072080;28;20028;-65
2023/04/16 11:07:01;;;;;;;22.20;15.93;;;;;;;;;;5085690;28;20074;-65
2023/04/16 11:09:49;;;;;;;30.08;17.63;;;;;;;;;;5073704;28;20309;-65
2023/04/16 11:12:15;;;;;;;26.40;17.20;;;;;;;;;;5082339;28;20359;-64
2023/04/16 11:14:41;;;;;;;26.50;17.40;;;;;;;;;;5074492;28;20031;-64
2023/04/16 11:17:06;;;;;;;25.50;16.58;;;;;;;;;;5080181;28;20017;-64
2023/04/16 11:19:32;;;;;;;27.52;17.38;;;;;;;;;;5073559;28;20040;-65
2023/04/16 11:21:58;;;;;;;24.30;17.13;;;;;;;;;;5078166;28;20016;-64
2023/04/16 11:24:23;;;;;;;23.45;16.73;;;;;;;;;;5073800;28;20493;-64
2023/04/16 11:26:51;;;;;;;23.80;16.75;;;;;;;;;;5080473;28;20016;-64
2023/04/16 11:29:17;;;;;;;40.95;18.38;;;;;;;;;;5086433;28;20500;-64
2023/04/16 11:31:48;;;;;;;29.05;17.83;;;;;;;;;;5091141;28;20024;-64
2023/04/16 11:34:14;;;;;;;31.73;18.85;;;;;;;;;;5068573;28;20044;-64
2023/04/16 11:36:43;;;;;;;24.33;17.98;;;;;;;;;;5052507;28;20027;-64
2023/04/16 11:39:08;;;;;;;33.58;18.88;;;;;;;;;;5083976;28;20043;-64
2023/04/16 11:41:33;;;;;;;33.47;18.40;;;;;;;;;;5077247;28;20051;-64
2023/04/16 11:43:58;;;;;;;26.92;17.83;;;;;;;;;;5076866;28;20062;-64
2023/04/16 11:46:36;;;;;;;35.40;20.30;;;;;;;;;;5075827;28;20387;-64
2023/04/16 11:49:01;;;;;;;27.55;18.45;;;;;;;;;;5080125;28;20028;-64
2023/04/16 11:51:26;;;;;;;28.00;18.00;;;;;;;;;;5079666;28;20492;-64
2023/04/16 11:53:52;;;;;;;34.72;16.35;;;;;;;;;;5079936;28;20055;-64
2023/04/16 11:56:28;;;;;;;32.30;17.73;;;;;;;;;;5077008;28;20021;-64
2023/04/16 11:59:09;;;;;;;21.13;17.45;;;;;;;;;;5078435;28;20494;-64
2023/04/16 12:01:35;;;;;;;26.55;18.17;;;;;;;;;;5077862;28;20019;-64
2023/04/16 12:04:01;;;;;;;30.73;16.65;;;;;;;;;;5075824;28;20025;-64
2023/04/16 12:06:27;;;;;;;27.35;18.38;;;;;;;;;;5075048;28;20107;-63
2023/04/16 12:08:52;;;;;;;31.48;17.52;;;;;;;;;;5076045;28;20028;-64
2023/04/16 12:11:17;;;;;;;25.13;18.20;;;;;;;;;;5073892;28;20027;-65
2023/04/16 12:14:02;;;;;;;28.58;19.63;;;;;;;;;;5076432;28;20037;-65
2023/04/16 12:16:28;;;;;;;34.95;16.92;;;;;;;;;;5074964;28;20025;-65
2023/04/16 12:19:00;;;;;;;29.55;17.65;;;;;;;;;;5073144;28;20023;-65
2023/04/16 12:21:36;;;;;;;32.00;17.85;;;;;;;;;;5073606;28;20043;-65
2023/04/16 12:24:02;;;;;;;24.35;18.33;;;;;;;;;;5076226;28;20035;-65
2023/04/16 12:26:34;;;;;;;24.15;15.77;;;;;;;;;;5073576;28;20024;-65
2023/04/16 12:29:12;;;;;;;20.30;16.75;;;;;;;;;;5073224;28;20375;-65
2023/04/16 12:31:38;;;;;;;23.70;15.57;;;;;;;;;;5074615;28;20570;-64
2023/04/16 12:34:03;;;;;;;27.17;15.85;;;;;;;;;;5072139;28;20017;-65
2023/04/16 12:36:28;;;;;;;31.00;18.13;;;;;;;;;;5072947;28;20519;-68
2023/04/16 12:38:54;;;;;;;23.35;15.90;;;;;;;;;;5056070;28;20062;-65
2023/04/16 12:41:19;;;;;;;24.45;15.20;;;;;;;;;;5035344;28;20128;-65
2023/04/16 12:43:44;;;;;;;21.60;15.60;;;;;;;;;;5037700;28;20038;-65
2023/04/16 12:46:10;;;;;;;25.58;15.30;;;;;;;;;;5031094;28;20059;-65
2023/04/16 12:48:35;;;;;;;23.05;15.50;;;;;;;;;;5039028;28;20021;-65
2023/04/16 12:51:00;;;;;;;25.80;14.80;;;;;;;;;;5047907;28;20034;-64
2023/04/16 12:53:26;;;;;;;21.63;15.27;;;;;;;;;;5081243;28;20025;-63
2023/04/16 12:55:51;;;;;;;26.80;16.38;;;;;;;;;;5072371;28;20024;-64
2023/04/16 12:58:16;;;;;;;21.92;15.55;;;;;;;;;;5080252;28;20078;-64
2023/04/16 13:00:42;;;;;;;19.25;15.65;;;;;;;;;;5072312;28;20506;-63
2023/04/16 13:03:07;;;;;;;21.67;14.88;;;;;;;;;;5078833;28;20024;-64
2023/04/16 13:05:32;;;;;;;23.50;15.75;;;;;;;;;;5085000;28;20032;-65
2023/04/16 13:07:58;;;;;;;23.98;16.05;;;;;;;;;;5068093;28;20023;-63
2023/04/16 13:10:23;;;;;;;28.55;16.67;;;;;;;;;;5048563;28;20028;-63
2023/04/16 13:12:48;;;;;;;26.88;17.10;;;;;;;;;;5036772;28;20028;-64
2023/04/16 13:15:14;;;;;;;28.92;16.35;;;;;;;;;;5033063;28;20040;-64
2023/04/16 13:17:39;;;;;;;19.35;14.60;;;;;;;;;;5042845;28;20463;-65
2023/04/16 13:20:04;;;;;;;25.88;15.13;;;;;;;;;;5051735;28;20808;-65
2023/04/16 13:22:30;;;;;;;25.67;16.48;;;;;;;;;;5066765;28;20048;-65
2023/04/16 13:24:55;;;;;;;18.88;14.60;;;;;;;;;;5072428;28;20024;-65
2023/04/16 13:27:21;;;;;;;23.80;15.70;;;;;;;;;;5074471;28;20027;-65
2023/04/16 13:29:46;;;;;;;19.15;14.30;;;;;;;;;;5080560;28;20069;-65
2023/04/16 13:32:12;;;;;;;31.20;16.48;;;;;;;;;;5083460;28;20058;-65
2023/04/16 13:34:38;;;;;;;23.10;15.65;;;;;;;;;;5071878;28;20395;-66
2023/04/16 13:37:03;;;;;;;18.35;14.27;;;;;;;;;;5073678;28;20024;-65
2023/04/16 13:39:28;;;;;;;20.42;15.48;;;;;;;;;;5071964;28;20036;-65
2023/04/16 13:41:54;;;;;;;28.48;14.50;;;;;;;;;;5071612;28;20024;-64
2023/04/16 13:44:20;;;;;;;27.25;14.13;;;;;;;;;;5071840;28;20043;-65
2023/04/16 13:46:48;;;;;;;21.83;15.18;;;;;;;;;;5075764;28;20040;-65
2023/04/16 13:49:13;;;;;;;19.48;15.68;;;;;;;;;;5076715;28;20028;-65
2023/04/16 13:51:41;;;;;;;22.08;14.82;;;;;;;;;;5071480;28;20387;-64
2023/04/16 13:54:06;;;;;;;23.48;15.10;;;;;;;;;;5074861;28;20025;-64
2023/04/16 13:56:32;;;;;;;21.88;15.95;;;;;;;;;;5071145;28;20082;-65
2023/04/16 13:58:57;;;;;;;23.08;13.95;;;;;;;;;;5077823;28;20028;-65
2023/04/16 14:01:22;;;;;;;19.30;14.20;;;;;;;;;;5073778;28;20505;-64
2023/04/16 14:03:48;;;;;;;34.80;15.63;;;;;;;;;;5072427;28;20486;-65
2023/04/16 14:06:13;;;;;;;23.38;15.93;;;;;;;;;;5070662;28;20037;-64
2023/04/16 14:08:39;;;;;;;24.05;16.33;;;;;;;;;;5071305;28;20043;-64
2023/04/16 14:11:05;;;;;;;22.88;16.05;;;;;;;;;;5076594;28;20027;-64
2023/04/16 14:13:30;;;;;;;25.85;17.50;;;;;;;;;;5089549;28;20043;-64